Strona główna
METAR-TAF:

METAR-TAF

Lotnisko :

Port lotniczy Siem Reap

Siem Reap, Kambodża

Szerokość geograficzna: 13-22N, Długość geograficzna: 103-51E, wysokość: 15 m

Aktualna obserwacja pogody

Raport powstał 33 minut temu, godzina 22:30 UTC
Wiatr 3 kt od zachód
Temperatura 27°C
Wilgotność 94%
Ciśnienie 1010 hPa
Widzialność: 9000 m
Rozproszone chmury na wysokości 1700 ft

METAR: VDSR 302230Z 27003KT 9000 SCT017 27/26 Q1010

czas: 06:03 (23:03 UTC)

Prognoza

Raport powstał 6 godziny i 3 minut temu, godzina 17:00 UTC
Prognoza ważna od 30 godzina 18 UTC do 31 godzina 12 UTC
Wiatr 4 kt od południowy wschód
Widzialność 10 km lub więcej
Rozproszone chmury na wysokości 1700 ft
Przejściowo
od 31 godzina 06 UTC do 31 godzina 11 UTC
Rozproszone chmury na wysokości 1500 ft
Mało chmury na wysokości 1700 ft, Cumulonimbus.

TAF: VDSR 301700Z 3018/3112 13004KT 9999 SCT017 TEMPO 3106/3111 SCT015 FEW017CB

Obserwacja i prognoza pogody dla ponad 4000 lotnisk (raport METAR i TAF).

Dostępne stacje oznaczono żółtymi i czerwonymi punktami na mapie.

Najedź kursorem aby zobaczyć nazwę stacji.

Kliknij aby zobaczyć obserwacje i prognozy pogody.

Aby zmienić mapę: kliknij na zielony przycisk z czarnym krzyżykiem, aby powiększyć; na zielony przycisk z myślnikiem, aby pomniejszyć; na zielone strzałki, aby przejść do map sąsiednich.


METAR-TAF: